Time;durP1;ratioP1;P1;durP2;ratioP2;P2;SDS_P1;SDS_P2;PMS_P1;PMS_P2;Temp;Humidity;BMP_temperature;BMP_pressure;BME280_temperature;BME280_humidity;BME280_pressure;Samples;Min_cycle;Max_cycle;Signal;HPM_P1;HPM_P2
2023/05/11 00:01:12;;;;;;;;;;;18.50;36.10;;;17.66;35.33;100994.75;12256652;19;20337;-84
2023/05/11 00:05:14;;;;;;;;;;;18.50;36.20;;;17.78;35.14;101017.53;12255697;19;19915;-84
2023/05/11 00:09:15;;;;;;;;;;;18.40;36.20;;;17.72;35.27;101020.69;12251184;19;19918;-84
2023/05/11 00:13:17;;;;;;;;;;;18.40;36.50;;;17.58;35.31;101007.72;12254244;19;19948;-84
2023/05/11 00:17:19;;;;;;;;;;;18.30;36.50;;;17.57;35.29;101017.44;12250708;19;19919;-85
2023/05/11 00:21:21;;;;;;;;;;;18.30;36.50;;;17.54;35.24;101008.94;12253448;19;19919;-84
2023/05/11 00:25:23;;;;;;;;;;;18.20;36.40;;;17.46;35.40;101009.56;12254166;19;19919;-84
2023/05/11 00:29:24;;;;;;;;;;;18.10;36.40;;;17.18;35.26;100969.53;12254088;19;19915;-85
2023/05/11 00:33:25;;;;;;;;;;;18.10;36.60;;;17.35;35.42;101012.22;12253123;19;20000;-84
2023/05/11 00:37:27;;;;;;;;;;;18.10;36.50;;;17.00;35.77;100960.41;12249676;19;19927;-84
2023/05/11 00:41:29;;;;;;;;;;;18.00;36.50;;;17.21;35.62;101013.31;12251841;19;19926;-84
2023/05/11 00:45:31;;;;;;;;;;;17.90;36.40;;;17.05;35.65;101011.03;12250984;19;19919;-84
2023/05/11 00:49:33;;;;;;;;;;;17.90;36.50;;;17.00;35.67;100999.97;12254212;19;19915;-84
2023/05/11 00:53:35;;;;;;;;;;;17.80;36.50;;;16.86;35.58;100981.75;12253413;19;19923;-84
2023/05/11 00:57:37;;;;;;;;;;;17.80;36.60;;;16.90;35.67;101001.66;12249716;19;19924;-84
2023/05/11 01:01:39;;;;;;;;;;;17.70;36.70;;;16.95;35.92;101017.97;12249871;19;20013;-84
2023/05/11 01:06:05;;;;;;;;;;;17.70;36.80;;;16.76;35.92;100995.59;12249019;19;19910;-83
2023/05/11 01:10:39;;;;;;;;;;;17.60;36.70;;;16.84;35.83;101015.31;12251255;19;20295;-84
2023/05/11 01:14:53;;;;;;;;;;;17.50;36.60;;;16.79;35.90;101015.66;12247800;19;19985;-85
2023/05/11 01:19:22;;;;;;;;;;;17.50;36.70;;;16.72;36.01;101017.09;12250807;19;19922;-84
2023/05/11 01:23:43;;;;;;;;;;;17.40;36.70;;;16.68;36.13;101018.25;12250967;19;19922;-84
2023/05/11 01:28:13;;;;;;;;;;;17.40;36.80;;;16.62;36.19;101030.13;12247317;19;19983;-83
2023/05/11 01:32:20;;;;;;;;;;;17.40;36.90;;;16.52;36.25;101013.31;12243699;19;19927;-84
2023/05/11 01:36:33;;;;;;;;;;;17.30;36.90;;;16.43;36.15;101008.75;12259614;19;19974;-84
2023/05/11 01:40:38;;;;;;;;;;;17.30;37.00;;;16.32;36.22;101001.63;12262888;19;19978;-84
2023/05/11 01:44:43;;;;;;;;;;;17.20;36.80;;;16.41;36.17;101032.56;12259215;19;19927;-84
2023/05/11 01:48:48;;;;;;;;;;;17.20;36.90;;;16.35;36.38;101031.22;12256704;19;19907;-85
2023/05/11 01:52:50;;;;;;;;;;;17.10;36.90;;;16.21;36.18;101012.97;12261844;19;19907;-84
2023/05/11 01:56:54;;;;;;;;;;;17.10;37.00;;;16.08;36.36;101004.31;12256760;19;19915;-85
2023/05/11 02:00:56;;;;;;;;;;;17.00;37.10;;;16.14;36.59;101024.91;12261908;19;19939;-84
2023/05/11 02:05:00;;;;;;;;;;;17.00;37.10;;;16.10;36.51;101041.91;12258412;19;19990;-85
2023/05/11 02:09:02;;;;;;;;;;;16.90;37.00;;;16.10;36.60;101053.28;12262348;19;19919;-84
2023/05/11 02:13:05;;;;;;;;;;;16.90;37.00;;;15.93;36.51;101027.31;12262370;19;19931;-84
2023/05/11 02:17:08;;;;;;;;;;;16.80;37.00;;;15.91;36.54;101042.41;12257403;19;20349;-84
2023/05/11 02:21:15;;;;;;;;;;;16.80;37.00;;;15.88;36.59;101056.66;12256211;19;20218;-84
2023/05/11 02:25:17;;;;;;;;;;;16.70;37.00;;;15.79;36.50;101056.47;12259473;19;19923;-84
2023/05/11 02:29:19;;;;;;;;;;;16.60;36.90;;;15.55;36.76;101037.94;12261186;19;19930;-84
2023/05/11 02:33:29;;;;;;;;;;;16.60;37.00;;;15.63;36.89;101059.31;12261977;19;19923;-84
2023/05/11 02:37:33;;;;;;;;;;;16.50;37.10;;;15.66;36.99;101072.25;12256323;19;20337;-85
2023/05/11 02:41:43;;;;;;;;;;;16.50;37.20;;;15.64;36.80;101066.28;12260365;19;19978;-84
2023/05/11 02:45:47;;;;;;;;;;;16.40;37.20;;;15.54;36.88;101052.91;12257458;19;19923;-84
2023/05/11 02:49:52;;;;;;;;;;;16.40;37.20;;;15.38;36.83;101034.72;12258669;19;20278;-85
2023/05/11 02:53:56;;;;;;;;;;;16.40;37.20;;;15.51;36.80;101063.66;12258814;19;19933;-84
2023/05/11 02:58:00;;;;;;;;;;;16.30;37.30;;;15.43;36.82;101069.47;12255261;19;19918;-84
2023/05/11 03:02:03;;;;;;;;;;;16.30;37.20;;;15.18;36.99;101036.13;12259801;19;20007;-84
2023/05/11 03:06:05;;;;;;;;;;;16.30;37.20;;;15.27;37.04;101055.69;12256696;19;19937;-84
2023/05/11 03:10:07;;;;;;;;;;;16.20;37.20;;;15.07;37.06;101043.06;12257000;19;19954;-84
2023/05/11 03:14:14;;;;;;;;;;;16.10;37.30;;;15.14;37.01;101070.63;12256607;19;19982;-84
2023/05/11 03:18:17;;;;;;;;;;;16.00;37.10;;;14.85;37.14;101041.06;12257209;19;19921;-85
2023/05/11 03:22:20;;;;;;;;;;;16.00;37.20;;;14.98;37.12;101071.69;12257917;19;19915;-84
2023/05/11 03:26:22;;;;;;;;;;;15.90;37.30;;;14.77;37.23;101045.09;12255323;19;20000;-84
2023/05/11 03:30:25;;;;;;;;;;;15.80;37.40;;;14.80;37.26;101051.94;12257507;19;19952;-84
2023/05/11 03:34:30;;;;;;;;;;;15.80;37.50;;;14.46;37.24;101019.13;12258332;19;19935;-84
2023/05/11 03:38:33;;;;;;;;;;;15.70;37.50;;;14.65;37.34;101059.03;12257902;19;19925;-84
2023/05/11 03:42:36;;;;;;;;;;;15.70;37.40;;;14.59;37.31;101068.19;12258218;19;19915;-85
2023/05/11 03:46:39;;;;;;;;;;;15.60;37.50;;;14.48;37.44;101054.88;12254341;19;19986;-85
2023/05/11 03:50:43;;;;;;;;;;;15.50;37.50;;;14.41;37.51;101044.88;12257241;19;20289;-84
2023/05/11 03:54:45;;;;;;;;;;;15.40;37.50;;;14.38;37.41;101052.00;12255194;19;19982;-85
2023/05/11 03:58:47;;;;;;;;;;;15.40;37.60;;;14.09;37.49;101009.25;12254969;19;19914;-84
2023/05/11 04:02:48;;;;;;;;;;;15.30;37.80;;;14.38;37.45;101066.94;12253134;19;19978;-84
2023/05/11 04:06:50;;;;;;;;;;;15.30;37.80;;;14.31;37.62;101065.66;12249233;19;19986;-84
2023/05/11 04:10:55;;;;;;;;;;;15.30;37.80;;;14.22;37.59;101058.38;12249747;19;19919;-84
2023/05/11 04:14:56;;;;;;;;;;;15.20;37.60;;;14.16;37.78;101065.72;12253910;19;19918;-84
2023/05/11 04:18:58;;;;;;;;;;;15.20;37.80;;;14.14;37.79;101067.59;12252849;19;19910;-84
2023/05/11 04:22:59;;;;;;;;;;;15.10;37.80;;;14.06;37.86;101080.38;12253464;19;19915;-84
2023/05/11 04:27:01;;;;;;;;;;;15.10;37.90;;;13.90;37.88;101061.28;12248490;19;20313;-84
2023/05/11 04:31:02;;;;;;;;;;;15.00;38.10;;;13.70;38.06;101034.53;12254529;19;19911;-85
2023/05/11 04:35:04;;;;;;;;;;;15.00;38.30;;;14.02;38.14;101086.78;12246425;19;19915;-83
2023/05/11 04:39:09;;;;;;;;;;;15.00;38.40;;;13.96;38.16;101081.91;12254159;19;20366;-85
2023/05/11 04:43:13;;;;;;;;;;;14.90;38.40;;;14.00;38.08;101093.06;12252415;19;19915;-84
2023/05/11 04:47:15;;;;;;;;;;;15.00;38.70;;;13.49;38.23;101015.72;12249318;19;19943;-84
2023/05/11 04:51:17;;;;;;;;;;;14.90;38.70;;;14.01;38.26;101105.25;12254221;19;20265;-84
2023/05/11 04:55:20;;;;;;;;;;;14.90;38.70;;;13.90;38.38;101077.88;12251327;19;19935;-85
2023/05/11 04:59:22;;;;;;;;;;;15.00;39.00;;;14.00;38.44;101099.16;12252199;19;19991;-84
2023/05/11 05:03:23;;;;;;;;;;;15.00;39.10;;;13.94;38.50;101075.91;12250472;19;20363;-84
2023/05/11 05:07:25;;;;;;;;;;;15.10;39.20;;;14.11;38.60;101091.41;12249513;19;20689;-84
2023/05/11 05:11:27;;;;;;;;;;;15.10;39.20;;;14.21;38.58;101101.34;12251147;19;19931;-84
2023/05/11 05:15:29;;;;;;;;;;;15.20;39.10;;;14.38;38.61;101108.97;12250727;19;19947;-85
2023/05/11 05:19:31;;;;;;;;;;;15.30;39.50;;;14.42;38.66;101102.59;12252757;19;19918;-85
2023/05/11 05:23:32;;;;;;;;;;;15.50;40.00;;;14.31;38.79;101065.66;12233560;19;19915;-85
2023/05/11 05:27:35;;;;;;;;;;;15.50;39.80;;;14.62;38.90;101105.72;12230895;19;19919;-84
2023/05/11 05:31:37;;;;;;;;;;;15.60;39.90;;;14.79;38.92;101118.56;12251093;19;19922;-85
2023/05/11 05:35:39;;;;;;;;;;;15.80;39.70;;;14.77;38.99;101091.53;12245029;19;19918;-84
2023/05/11 05:39:41;;;;;;;;;;;15.90;40.90;;;15.03;39.10;101114.31;12247629;19;19927;-86
2023/05/11 05:43:44;;;;;;;;;;;16.10;40.00;;;14.93;39.14;101065.06;12250226;19;19914;-84
2023/05/11 05:47:47;;;;;;;;;;;16.30;40.60;;;15.38;39.03;101116.31;12241270;19;20354;-85
2023/05/11 05:51:50;;;;;;;;;;;16.50;40.50;;;15.48;39.15;101098.94;12246989;19;19983;-84
2023/05/11 05:55:53;;;;;;;;;;;16.70;40.20;;;15.76;39.36;101111.97;12247776;19;19982;-85
2023/05/11 05:59:55;;;;;;;;;;;16.90;40.30;;;16.09;39.54;101119.25;12252905;19;20358;-85
2023/05/11 06:03:57;;;;;;;;;;;17.20;40.10;;;16.33;39.43;101130.66;12249978;19;19919;-85
2023/05/11 06:08:00;;;;;;;;;;;17.50;39.90;;;16.62;39.44;101140.88;12251657;19;19919;-85
2023/05/11 06:12:01;;;;;;;;;;;17.70;40.00;;;16.81;39.32;101135.09;12254828;19;19943;-86
2023/05/11 06:16:05;;;;;;;;;;;18.00;40.20;;;16.96;39.39;101122.56;12250699;19;19922;-86
2023/05/11 06:20:09;;;;;;;;;;;18.20;40.50;;;17.18;39.42;101119.13;12248859;19;19925;-83
2023/05/11 06:24:11;;;;;;;;;;;18.40;39.40;;;17.42;39.32;101142.78;12251650;19;19910;-83
2023/05/11 06:28:21;;;;;;;;;;;18.60;39.60;;;17.60;39.23;101143.13;12250922;19;19956;-86
2023/05/11 06:32:29;;;;;;;;;;;18.80;39.60;;;17.77;39.30;101141.81;12250706;19;19943;-83
2023/05/11 06:36:32;;;;;;;;;;;19.00;41.00;;;17.34;39.38;101044.88;12249126;19;19923;-84
2023/05/11 06:40:34;;;;;;;;;;;19.10;39.20;;;17.77;39.43;101096.91;12254406;19;19911;-85
2023/05/11 06:44:35;;;;;;;;;;;19.20;38.60;;;18.08;39.21;101127.88;12252421;19;20304;-84
2023/05/11 06:48:39;;;;;;;;;;;19.40;38.80;;;18.27;39.37;101131.69;12249403;19;20373;-86
2023/05/11 06:52:40;;;;;;;;;;;19.60;40.00;;;18.20;39.37;101096.13;12250468;19;19947;-86
2023/05/11 06:56:42;;;;;;;;;;;19.70;39.60;;;18.58;39.18;101125.56;12250454;19;19992;-86
2023/05/11 07:00:43;;;;;;;;;;;19.80;39.50;;;18.77;39.43;101137.31;12250531;19;19926;-85
2023/05/11 07:04:45;;;;;;;;;;;20.00;39.20;;;18.77;39.43;101102.91;12246999;19;19926;-88
2023/05/11 07:08:47;;;;;;;;;;;20.20;38.70;;;19.05;39.38;101130.53;12248696;19;19927;-88
2023/05/11 07:12:49;;;;;;;;;;;20.30;38.80;;;19.14;38.98;101121.78;12251882;19;19930;-87
2023/05/11 07:16:51;;;;;;;;;;;20.50;38.80;;;19.13;39.01;101085.69;12248301;19;19947;-88
2023/05/11 07:20:52;;;;;;;;;;;20.60;38.80;;;19.58;39.11;101134.84;12251540;19;19934;-89
2023/05/11 07:24:54;;;;;;;;;;;20.70;38.80;;;19.74;39.05;101135.22;12253287;19;19915;-90
2023/05/11 07:28:55;;;;;;;;;;;20.90;38.40;;;19.82;39.10;101116.84;12250953;19;19985;-88
2023/05/11 07:32:56;;;;;;;;;;;21.10;38.40;;;20.07;38.86;101130.56;12253310;19;20345;-89
2023/05/11 07:36:58;;;;;;;;;;;21.30;38.30;;;20.19;38.81;101123.31;12249962;19;19915;-89
2023/05/11 07:40:59;;;;;;;;;;;21.50;38.30;;;20.33;38.99;101126.44;12250375;19;19936;-89
2023/05/11 07:45:00;;;;;;;;;;;21.60;38.20;;;20.46;38.64;101114.69;12245953;19;19953;-89
2023/05/11 07:49:02;;;;;;;;;;;21.80;37.90;;;20.80;38.97;101138.19;12243966;19;20533;-89
2023/05/11 07:53:04;;;;;;;;;;;22.00;37.80;;;20.76;38.74;101111.06;12251312;19;19970;-89
2023/05/11 07:57:05;;;;;;;;;;;22.10;37.90;;;21.04;38.73;101119.16;12250365;19;19915;-89
2023/05/11 08:01:07;;;;;;;;;;;22.30;37.50;;;21.26;38.88;101125.94;12252245;19;20333;-90
2023/05/11 08:05:09;;;;;;;;;;;22.50;37.60;;;21.42;38.96;101136.81;12248819;19;19919;-89
2023/05/11 08:09:10;;;;;;;;;;;22.60;37.40;;;21.37;38.58;101091.22;12248908;19;19998;-88
2023/05/11 08:13:12;;;;;;;;;;;22.80;37.30;;;21.67;38.79;101121.19;12249294;19;19918;-88
2023/05/11 08:17:14;;;;;;;;;;;22.90;37.20;;;21.75;38.27;101116.81;12247436;19;19938;-89
2023/05/11 08:21:16;;;;;;;;;;;23.10;37.40;;;21.88;38.64;101106.66;12248028;19;19933;-88
2023/05/11 08:25:18;;;;;;;;;;;23.20;37.30;;;22.13;38.30;101114.91;12248264;19;19926;-89
2023/05/11 08:29:19;;;;;;;;;;;23.40;37.20;;;22.30;38.60;101111.47;12246173;19;19921;-92
2023/05/11 08:33:21;;;;;;;;;;;23.60;37.20;;;22.60;38.50;101124.50;12251370;19;19945;-89
2023/05/11 08:37:22;;;;;;;;;;;23.80;36.70;;;22.56;38.26;101091.22;12243913;19;20000;-87
2023/05/11 08:41:24;;;;;;;;;;;23.90;36.50;;;22.84;38.21;101105.25;12247610;19;19918;-87
2023/05/11 08:45:26;;;;;;;;;;;24.10;36.10;;;23.09;38.33;101120.44;12247846;19;20652;-88
2023/05/11 08:49:27;;;;;;;;;;;24.30;36.20;;;23.15;38.03;101114.47;12250799;19;19983;-88
2023/05/11 08:53:29;;;;;;;;;;;24.40;36.30;;;23.26;38.08;101094.72;12248630;19;19922;-87
2023/05/11 08:57:31;;;;;;;;;;;24.60;35.30;;;23.40;37.53;101110.09;12247450;19;19925;-88
2023/05/11 09:01:35;;;;;;;;;;;24.70;35.10;;;23.53;37.96;101116.84;12248691;19;19918;-88
2023/05/11 09:05:38;;;;;;;;;;;24.80;35.30;;;23.69;37.77;101118.75;12249562;19;19923;-88
2023/05/11 09:09:40;;;;;;;;;;;24.90;35.50;;;23.77;37.94;101116.16;12248753;19;19919;-88
2023/05/11 09:13:42;;;;;;;;;;;25.00;34.70;;;23.83;37.76;101110.97;12250156;19;19925;-88
2023/05/11 09:17:43;;;;;;;;;;;25.10;35.70;;;24.05;37.72;101122.06;12245435;19;19919;-87
2023/05/11 09:21:46;;;;;;;;;;;25.20;35.70;;;24.12;37.47;101120.41;12248034;19;20241;-88
2023/05/11 09:25:47;;;;;;;;;;;25.30;34.50;;;24.20;37.31;101131.09;12247099;19;19911;-88
2023/05/11 09:29:54;;;;;;;;;;;25.40;35.20;;;24.19;37.14;101105.41;12247856;19;19919;-88
2023/05/11 09:34:14;;;;;;;;;;;25.40;35.60;;;24.28;37.39;101104.41;12243122;19;19926;-87
2023/05/11 09:38:18;;;;;;;;;;;25.50;35.60;;;24.33;37.54;101097.75;12247056;19;19918;-88
2023/05/11 09:42:20;;;;;;;;;;;25.60;35.60;;;24.34;37.32;101102.94;12249129;19;19921;-86
2023/05/11 09:46:22;;;;;;;;;;;25.70;33.00;;;24.47;36.98;101103.31;12243838;19;19931;-89
2023/05/11 09:50:23;;;;;;;;;;;25.70;34.30;;;24.47;37.21;101099.81;12249103;19;19923;-89
2023/05/11 09:54:25;;;;;;;;;;;25.80;34.00;;;24.62;36.71;101115.97;12251395;19;19923;-88
2023/05/11 09:58:53;;;;;;;;;;;25.80;33.30;;;24.58;36.58;101115.50;12258940;19;19926;-87
2023/05/11 10:03:06;;;;;;;;;;;25.80;33.20;;;24.69;36.37;101101.78;12259380;19;19923;-88
2023/05/11 10:07:08;;;;;;;;;;;25.80;34.00;;;24.83;36.46;101120.81;12258181;19;19987;-87
2023/05/11 10:11:09;;;;;;;;;;;25.90;34.10;;;24.87;35.95;101103.44;12255898;19;19914;-87
2023/05/11 10:15:11;;;;;;;;;;;26.00;31.00;;;24.88;35.57;101075.72;12257199;19;19919;-88
2023/05/11 10:19:13;;;;;;;;;;;26.10;32.80;;;24.97;35.68;101106.75;12260441;19;19919;-87
2023/05/11 10:23:16;;;;;;;;;;;26.10;32.60;;;24.96;35.69;101099.75;12259171;19;19929;-87
2023/05/11 10:27:19;;;;;;;;;;;26.10;33.50;;;24.97;35.44;101101.41;12256873;19;19951;-87
2023/05/11 10:31:22;;;;;;;;;;;26.10;33.30;;;25.04;35.46;101097.06;12255283;19;19922;-88
2023/05/11 10:35:25;;;;;;;;;;;26.10;31.70;;;25.06;35.26;101095.06;12255647;19;20367;-87
2023/05/11 10:39:28;;;;;;;;;;;26.10;32.80;;;25.06;35.31;101092.41;12255681;19;20484;-87
2023/05/11 10:43:30;;;;;;;;;;;26.20;33.40;;;25.12;35.04;101093.56;12254574;19;19919;-87
2023/05/11 10:47:50;;;;;;;;;;;26.20;32.10;;;25.14;35.04;101103.06;12252246;19;19929;-88
2023/05/11 10:52:11;;;;;;;;;;;26.20;33.50;;;25.13;35.30;101098.72;12255228;19;20019;-87
2023/05/11 10:56:15;;;;;;;;;;;26.20;32.40;;;25.08;35.10;101093.03;12253363;19;19921;-87
2023/05/11 11:01:02;;;;;;;;;;;26.10;32.00;;;25.06;35.10;101100.41;12257103;19;19994;-88
2023/05/11 11:05:07;;;;;;;;;;;26.10;32.70;;;24.89;34.94;101082.72;12254337;19;19915;-87
2023/05/11 11:09:14;;;;;;;;;;;26.10;32.30;;;24.95;35.12;101098.94;12252551;19;19932;-88
2023/05/11 11:13:18;;;;;;;;;;;26.00;32.00;;;24.91;34.62;101107.44;12259316;19;19943;-86
2023/05/11 11:17:22;;;;;;;;;;;26.00;32.30;;;24.79;34.81;101108.78;12252464;19;20278;-86
2023/05/11 11:21:41;;;;;;;;;;;25.90;32.00;;;24.70;34.76;101100.78;12256631;19;19915;-86
2023/05/11 11:25:52;;;;;;;;;;;25.80;32.10;;;24.71;34.88;101105.13;12253920;19;19956;-86
2023/05/11 11:30:27;;;;;;;;;;;25.80;32.50;;;24.64;34.42;101114.81;12256803;19;19932;-86
2023/05/11 11:34:30;;;;;;;;;;;25.60;32.60;;;24.57;34.28;101116.47;12253748;19;20024;-87
2023/05/11 11:38:32;;;;;;;;;;;25.50;32.70;;;24.53;34.69;101111.66;12255845;19;19982;-86
2023/05/11 11:42:36;;;;;;;;;;;25.50;32.10;;;24.57;34.41;101120.97;12247444;19;19919;-86
2023/05/11 11:46:38;;;;;;;;;;;25.50;31.90;;;24.57;34.43;101089.75;12249285;19;19965;-87
2023/05/11 11:50:44;;;;;;;;;;;25.50;32.40;;;24.66;34.48;101104.81;12252611;19;19943;-88
2023/05/11 11:54:46;;;;;;;;;;;25.60;31.30;;;24.73;34.50;101108.47;12250073;19;20261;-87
2023/05/11 11:58:55;;;;;;;;;;;25.70;31.50;;;24.89;34.34;101118.28;12250499;19;19925;-88
2023/05/11 12:02:58;;;;;;;;;;;25.70;30.60;;;24.93;34.01;101116.13;12252910;19;19915;-87
2023/05/11 12:07:02;;;;;;;;;;;25.80;31.30;;;25.08;34.07;101127.78;12246784;19;19926;-87
2023/05/11 12:11:05;;;;;;;;;;;26.00;32.90;;;25.10;34.36;101119.59;12250347;19;19933;-87
2023/05/11 12:15:07;;;;;;;;;;;26.00;31.40;;;25.00;33.72;101101.06;12248803;19;20376;-88
2023/05/11 12:19:09;;;;;;;;;;;26.00;30.80;;;25.13;34.14;101117.41;12248500;19;20653;-88
2023/05/11 12:23:11;;;;;;;;;;;26.10;31.70;;;25.08;33.98;101111.75;12250638;19;19926;-87
2023/05/11 12:27:15;;;;;;;;;;;26.10;31.80;;;25.05;33.67;101114.75;12245370;19;19986;-87
2023/05/11 12:31:17;;;;;;;;;;;26.10;31.40;;;24.87;33.71;101100.75;12249087;19;19986;-88
2023/05/11 12:35:24;;;;;;;;;;;26.00;31.40;;;25.08;33.72;101117.09;12247080;19;19964;-88
2023/05/11 12:39:26;;;;;;;;;;;26.00;30.00;;;25.08;33.22;101119.75;12251441;19;19940;-88
2023/05/11 12:43:28;;;;;;;;;;;26.00;31.00;;;25.06;32.99;101121.78;12249436;19;19928;-87
2023/05/11 12:47:30;;;;;;;;;;;26.10;31.10;;;25.15;33.50;101134.16;12242472;19;19946;-88
2023/05/11 12:51:43;;;;;;;;;;;26.00;30.10;;;25.16;33.37;101125.13;12246471;19;19948;-88
2023/05/11 12:55:55;;;;;;;;;;;26.10;31.10;;;24.93;33.27;101070.72;12248648;19;20573;-88
2023/05/11 13:00:10;;;;;;;;;;;26.10;31.40;;;25.24;32.98;101108.25;12246615;19;19918;-86
2023/05/11 13:04:14;;;;;;;;;;;26.10;30.80;;;25.26;33.09;101116.09;12250246;19;19915;-87
2023/05/11 13:08:18;;;;;;;;;;;26.20;31.10;;;25.24;32.87;101107.41;12247792;19;20593;-87
2023/05/11 13:12:20;;;;;;;;;;;26.20;31.10;;;25.28;32.79;101109.56;12251128;19;19940;-86
2023/05/11 13:16:25;;;;;;;;;;;26.20;31.00;;;25.36;33.20;101112.22;12246761;19;19918;-88
2023/05/11 13:20:34;;;;;;;;;;;26.20;31.80;;;25.28;32.98;101087.38;12239755;19;19978;-87
2023/05/11 13:24:35;;;;;;;;;;;26.30;30.20;;;25.39;32.93;101105.69;12249329;19;20434;-88
2023/05/11 13:28:37;;;;;;;;;;;26.30;31.20;;;25.44;33.20;101091.78;12254167;19;19923;-87
2023/05/11 13:32:38;;;;;;;;;;;26.30;30.10;;;25.33;33.01;101082.31;12272726;19;20268;-87
2023/05/11 13:36:40;;;;;;;;;;;26.40;31.40;;;25.46;32.96;101101.31;12270701;19;19925;-87
2023/05/11 13:40:41;;;;;;;;;;;26.50;29.90;;;25.50;32.92;101096.47;12271104;19;20205;-87
2023/05/11 13:44:43;;;;;;;;;;;26.50;30.30;;;25.31;32.54;101069.13;12270019;19;19923;-88
2023/05/11 13:48:44;;;;;;;;;;;26.40;31.00;;;25.29;32.62;101064.97;12270368;19;19950;-87
2023/05/11 13:52:46;;;;;;;;;;;26.50;30.50;;;25.32;32.33;101072.63;12271743;19;19926;-87
2023/05/11 13:56:47;;;;;;;;;;;26.40;29.20;;;25.40;32.23;101080.63;12269728;19;19926;-88
2023/05/11 14:00:48;;;;;;;;;;;26.40;30.20;;;25.47;32.18;101094.97;12269752;19;19926;-87
2023/05/11 14:04:50;;;;;;;;;;;26.40;30.50;;;25.41;32.10;101084.97;12272367;19;20256;-87
2023/05/11 14:08:52;;;;;;;;;;;26.40;30.20;;;25.30;32.26;101058.59;12269654;19;20008;-88
2023/05/11 14:12:54;;;;;;;;;;;26.40;30.70;;;25.49;32.51;101082.28;12272613;19;19918;-87
2023/05/11 14:16:55;;;;;;;;;;;26.40;30.60;;;25.44;32.21;101081.94;12270054;19;19925;-87
2023/05/11 14:20:57;;;;;;;;;;;26.50;29.70;;;25.55;31.97;101084.25;12270924;19;19922;-87
2023/05/11 14:24:58;;;;;;;;;;;26.40;28.90;;;25.56;32.04;101077.88;12270088;19;20365;-87
2023/05/11 14:29:00;;;;;;;;;;;26.50;29.90;;;25.57;31.67;101092.06;12268541;19;19915;-87
2023/05/11 14:33:01;;;;;;;;;;;26.50;30.00;;;25.56;32.12;101085.06;12272972;19;20006;-87
2023/05/11 14:37:04;;;;;;;;;;;26.50;30.70;;;25.53;32.08;101080.91;12270255;19;19923;-87
2023/05/11 14:41:06;;;;;;;;;;;26.50;30.00;;;25.54;31.80;101082.56;12266717;19;19911;-87
2023/05/11 14:45:08;;;;;;;;;;;26.50;30.30;;;25.54;31.69;101077.22;12258592;19;19942;-88
2023/05/11 14:49:10;;;;;;;;;;;26.40;29.60;;;25.49;31.31;101068.03;12254948;19;20245;-88
2023/05/11 14:53:12;;;;;;;;;;;26.40;29.80;;;25.51;31.80;101068.72;12257942;19;19911;-88
2023/05/11 14:57:14;;;;;;;;;;;26.50;30.60;;;25.55;31.36;101072.72;12255686;19;20246;-88
2023/05/11 15:01:16;;;;;;;;;;;26.50;28.80;;;25.57;31.68;101076.88;12250877;19;19911;-88
2023/05/11 15:05:17;;;;;;;;;;;26.50;30.60;;;25.56;31.66;101083.22;12254960;19;19922;-87
2023/05/11 15:09:20;;;;;;;;;;;26.50;30.00;;;25.57;31.47;101090.25;12253105;19;19919;-87
2023/05/11 15:13:22;;;;;;;;;;;26.50;30.80;;;25.63;31.31;101095.88;12257172;19;20368;-88
2023/05/11 15:17:23;;;;;;;;;;;26.40;30.20;;;25.54;30.98;101085.22;12254714;19;20287;-88
2023/05/11 15:21:25;;;;;;;;;;;26.50;30.90;;;25.59;31.16;101111.47;12255694;19;19943;-87
2023/05/11 15:25:26;;;;;;;;;;;26.50;30.60;;;25.49;31.38;101090.28;12256568;19;19923;-87
2023/05/11 15:29:28;;;;;;;;;;;26.40;30.30;;;25.55;31.31;101107.50;12253719;19;19925;-87
2023/05/11 15:33:29;;;;;;;;;;;26.40;29.20;;;25.53;31.10;101114.84;12255756;19;19921;-88
2023/05/11 15:37:32;;;;;;;;;;;26.40;30.40;;;25.54;31.21;101119.16;12254561;19;19993;-87
2023/05/11 15:41:33;;;;;;;;;;;26.40;29.90;;;25.37;31.29;101102.34;12255190;19;19926;-87
2023/05/11 15:45:35;;;;;;;;;;;26.40;29.70;;;25.16;30.97;101084.19;12252638;19;19943;-87
2023/05/11 15:49:36;;;;;;;;;;;26.30;29.80;;;25.36;31.13;101128.28;12251529;19;19931;-87
2023/05/11 15:53:38;;;;;;;;;;;26.20;29.30;;;25.33;31.22;101143.78;12248187;19;19923;-87
2023/05/11 15:57:39;;;;;;;;;;;26.20;30.20;;;25.26;30.95;101142.84;12251270;19;19986;-88
2023/05/11 16:01:41;;;;;;;;;;;26.20;29.30;;;25.11;31.20;101118.59;12252777;19;19926;-87
2023/05/11 16:05:44;;;;;;;;;;;26.10;30.10;;;25.06;31.33;101121.78;12251591;19;19915;-87
2023/05/11 16:09:46;;;;;;;;;;;26.10;30.00;;;25.12;31.21;101145.16;12254012;19;19911;-87
2023/05/11 16:13:47;;;;;;;;;;;26.00;30.30;;;24.84;30.80;101096.59;12251916;19;19922;-87
2023/05/11 16:17:49;;;;;;;;;;;25.90;29.70;;;24.86;31.09;101115.13;12249755;19;19932;-87
2023/05/11 16:21:51;;;;;;;;;;;25.90;30.10;;;24.78;31.28;101109.81;12252278;19;19963;-87
2023/05/11 16:25:53;;;;;;;;;;;25.80;30.50;;;24.90;31.06;101121.81;12247572;19;19966;-87
2023/05/11 16:29:55;;;;;;;;;;;25.80;30.30;;;24.99;30.73;101146.69;12249895;19;19910;-88
2023/05/11 16:33:56;;;;;;;;;;;25.80;29.90;;;24.92;30.66;101135.81;12250628;19;19926;-88
2023/05/11 16:37:58;;;;;;;;;;;25.80;30.10;;;24.85;31.07;101134.84;12248412;19;19919;-88
2023/05/11 16:42:00;;;;;;;;;;;25.70;30.50;;;24.87;30.83;101141.69;12249903;19;19911;-88
2023/05/11 16:46:02;;;;;;;;;;;25.70;30.40;;;24.79;30.91;101136.34;12233315;19;19923;-87
2023/05/11 16:50:04;;;;;;;;;;;25.70;30.00;;;24.77;30.57;101146.38;12246604;19;19966;-87
2023/05/11 16:54:05;;;;;;;;;;;25.70;30.60;;;24.79;30.70;101154.19;12246834;19;19915;-87
2023/05/11 16:58:07;;;;;;;;;;;25.60;30.70;;;24.77;30.83;101159.72;12245253;19;19919;-87
2023/05/11 17:02:09;;;;;;;;;;;25.60;30.70;;;24.78;31.08;101166.72;12248359;19;21306;-87
2023/05/11 17:06:13;;;;;;;;;;;25.60;30.00;;;24.56;30.92;101141.50;12247759;19;19918;-87
2023/05/11 17:10:14;;;;;;;;;;;25.50;30.10;;;24.49;30.66;101135.16;12247148;19;19919;-88
2023/05/11 17:14:16;;;;;;;;;;;25.50;30.80;;;24.59;30.74;101157.22;12247955;19;19927;-87
2023/05/11 17:18:17;;;;;;;;;;;25.40;30.40;;;24.47;31.03;101150.53;12243902;19;20312;-87
2023/05/11 17:22:19;;;;;;;;;;;25.40;30.70;;;24.48;30.91;101149.53;12248464;19;19919;-86
2023/05/11 17:26:21;;;;;;;;;;;25.30;30.70;;;24.46;31.04;101156.84;12245044;19;20341;-87
2023/05/11 17:30:23;;;;;;;;;;;25.30;31.10;;;24.48;30.66;101168.22;12248472;19;19919;-87
2023/05/11 17:34:24;;;;;;;;;;;25.30;30.60;;;24.44;30.75;101169.56;12247276;19;19911;-87
2023/05/11 17:38:27;;;;;;;;;;;25.20;31.00;;;24.31;30.69;101151.31;12246253;19;20250;-88
2023/05/11 17:42:29;;;;;;;;;;;25.20;31.00;;;24.42;31.02;101182.19;12249357;19;19941;-85
2023/05/11 17:46:31;;;;;;;;;;;25.20;30.80;;;24.36;30.87;101177.50;12234992;19;19936;-87
2023/05/11 17:50:35;;;;;;;;;;;25.10;31.00;;;24.25;31.04;101171.50;12245098;19;19949;-87
2023/05/11 17:54:36;;;;;;;;;;;25.10;31.10;;;24.32;30.65;101182.34;12244417;19;19915;-87
2023/05/11 17:58:38;;;;;;;;;;;25.10;31.10;;;24.29;30.95;101185.34;12242424;19;19911;-86
2023/05/11 18:02:39;;;;;;;;;;;25.10;31.20;;;24.26;30.93;101199.84;12246094;19;19915;-87
2023/05/11 18:06:41;;;;;;;;;;;25.00;31.20;;;24.21;30.84;101194.16;12244699;19;19926;-85
2023/05/11 18:10:43;;;;;;;;;;;25.00;31.30;;;24.15;31.12;101193.97;12243491;19;19911;-85
2023/05/11 18:14:44;;;;;;;;;;;25.00;31.20;;;24.07;30.75;101190.28;12245817;19;19999;-85